sensor_id;sensor_type;location;lat;lon;timestamp;P1;durP1;ratioP1;P2;durP2;ratioP2
26042;SDS011;13818;52.156;5.382;2023-04-25T00:00:34;8.88;;;2.30;;
26042;SDS011;13818;52.156;5.382;2023-04-25T00:03:00;12.55;;;3.05;;
26042;SDS011;13818;52.156;5.382;2023-04-25T00:05:27;11.13;;;2.78;;
26042;SDS011;13818;52.156;5.382;2023-04-25T00:07:55;13.07;;;3.33;;
26042;SDS011;13818;52.156;5.382;2023-04-25T00:10:23;14.52;;;2.80;;
26042;SDS011;13818;52.156;5.382;2023-04-25T00:12:50;16.20;;;2.85;;
26042;SDS011;13818;52.156;5.382;2023-04-25T00:15:16;11.30;;;2.63;;
26042;SDS011;13818;52.156;5.382;2023-04-25T00:17:43;14.73;;;3.30;;
26042;SDS011;13818;52.156;5.382;2023-04-25T00:20:11;18.10;;;2.88;;
26042;SDS011;13818;52.156;5.382;2023-04-25T00:22:38;19.67;;;2.92;;
26042;SDS011;13818;52.156;5.382;2023-04-25T00:25:06;12.50;;;3.90;;
26042;SDS011;13818;52.156;5.382;2023-04-25T00:27:33;14.93;;;3.10;;
26042;SDS011;13818;52.156;5.382;2023-04-25T00:29:59;14.50;;;3.25;;
26042;SDS011;13818;52.156;5.382;2023-04-25T00:32:26;12.85;;;2.70;;
26042;SDS011;13818;52.156;5.382;2023-04-25T00:34:52;20.40;;;3.33;;
26042;SDS011;13818;52.156;5.382;2023-04-25T00:37:20;15.77;;;2.20;;
26042;SDS011;13818;52.156;5.382;2023-04-25T00:39:47;21.15;;;3.60;;
26042;SDS011;13818;52.156;5.382;2023-04-25T00:42:15;9.85;;;2.47;;
26042;SDS011;13818;52.156;5.382;2023-04-25T00:44:42;11.63;;;2.17;;
26042;SDS011;13818;52.156;5.382;2023-04-25T00:47:09;13.35;;;2.22;;
26042;SDS011;13818;52.156;5.382;2023-04-25T00:49:37;12.55;;;3.15;;
26042;SDS011;13818;52.156;5.382;2023-04-25T00:52:05;13.30;;;2.35;;
26042;SDS011;13818;52.156;5.382;2023-04-25T00:54:31;12.30;;;2.00;;
26042;SDS011;13818;52.156;5.382;2023-04-25T00:56:58;18.35;;;3.03;;
26042;SDS011;13818;52.156;5.382;2023-04-25T00:59:27;17.60;;;3.22;;
26042;SDS011;13818;52.156;5.382;2023-04-25T01:01:54;15.77;;;2.45;;
26042;SDS011;13818;52.156;5.382;2023-04-25T01:04:21;9.43;;;2.75;;
26042;SDS011;13818;52.156;5.382;2023-04-25T01:06:47;9.57;;;2.55;;
26042;SDS011;13818;52.156;5.382;2023-04-25T01:09:14;20.83;;;3.22;;
26042;SDS011;13818;52.156;5.382;2023-04-25T01:11:41;12.18;;;2.60;;
26042;SDS011;13818;52.156;5.382;2023-04-25T01:14:08;8.60;;;2.85;;
26042;SDS011;13818;52.156;5.382;2023-04-25T01:16:36;20.73;;;3.42;;
26042;SDS011;13818;52.156;5.382;2023-04-25T01:19:04;13.98;;;2.83;;
26042;SDS011;13818;52.156;5.382;2023-04-25T01:24:00;19.55;;;2.58;;
26042;SDS011;13818;52.156;5.382;2023-04-25T01:26:27;12.02;;;2.72;;
26042;SDS011;13818;52.156;5.382;2023-04-25T01:28:54;14.15;;;2.72;;
26042;SDS011;13818;52.156;5.382;2023-04-25T01:31:21;9.68;;;2.40;;
26042;SDS011;13818;52.156;5.382;2023-04-25T01:33:47;15.73;;;2.88;;
26042;SDS011;13818;52.156;5.382;2023-04-25T01:36:15;11.35;;;2.60;;
26042;SDS011;13818;52.156;5.382;2023-04-25T01:38:43;11.20;;;3.10;;
26042;SDS011;13818;52.156;5.382;2023-04-25T01:41:12;16.35;;;2.85;;
26042;SDS011;13818;52.156;5.382;2023-04-25T01:43:39;16.27;;;3.40;;
26042;SDS011;13818;52.156;5.382;2023-04-25T01:46:06;8.20;;;2.45;;
26042;SDS011;13818;52.156;5.382;2023-04-25T01:48:32;11.43;;;2.58;;
26042;SDS011;13818;52.156;5.382;2023-04-25T01:50:59;12.35;;;2.88;;
26042;SDS011;13818;52.156;5.382;2023-04-25T01:53:25;15.10;;;2.67;;
26042;SDS011;13818;52.156;5.382;2023-04-25T01:55:53;12.52;;;2.72;;
26042;SDS011;13818;52.156;5.382;2023-04-25T01:58:20;8.90;;;2.47;;
26042;SDS011;13818;52.156;5.382;2023-04-25T02:00:46;16.30;;;2.70;;
26042;SDS011;13818;52.156;5.382;2023-04-25T02:03:13;11.00;;;3.35;;
26042;SDS011;13818;52.156;5.382;2023-04-25T02:05:40;9.68;;;2.60;;
26042;SDS011;13818;52.156;5.382;2023-04-25T02:08:08;10.23;;;2.60;;
26042;SDS011;13818;52.156;5.382;2023-04-25T02:10:35;11.95;;;2.47;;
26042;SDS011;13818;52.156;5.382;2023-04-25T02:13:03;11.10;;;2.40;;
26042;SDS011;13818;52.156;5.382;2023-04-25T02:15:30;17.08;;;2.65;;
26042;SDS011;13818;52.156;5.382;2023-04-25T02:17:57;12.55;;;2.65;;
26042;SDS011;13818;52.156;5.382;2023-04-25T02:20:25;12.57;;;2.92;;
26042;SDS011;13818;52.156;5.382;2023-04-25T02:22:52;12.80;;;2.70;;
26042;SDS011;13818;52.156;5.382;2023-04-25T02:25:27;11.63;;;3.65;;
26042;SDS011;13818;52.156;5.382;2023-04-25T02:27:53;17.17;;;2.60;;
26042;SDS011;13818;52.156;5.382;2023-04-25T02:30:21;12.43;;;1.92;;
26042;SDS011;13818;52.156;5.382;2023-04-25T02:32:48;11.57;;;2.47;;
26042;SDS011;13818;52.156;5.382;2023-04-25T02:35:14;15.45;;;2.90;;
26042;SDS011;13818;52.156;5.382;2023-04-25T02:37:41;11.15;;;2.78;;
26042;SDS011;13818;52.156;5.382;2023-04-25T02:40:08;11.68;;;2.13;;
26042;SDS011;13818;52.156;5.382;2023-04-25T02:42:35;12.55;;;2.15;;
26042;SDS011;13818;52.156;5.382;2023-04-25T02:45:02;12.10;;;2.78;;
26042;SDS011;13818;52.156;5.382;2023-04-25T02:47:31;16.95;;;2.47;;
26042;SDS011;13818;52.156;5.382;2023-04-25T02:49:57;24.80;;;3.60;;
26042;SDS011;13818;52.156;5.382;2023-04-25T02:52:24;15.65;;;2.90;;
26042;SDS011;13818;52.156;5.382;2023-04-25T02:54:50;9.50;;;2.05;;
26042;SDS011;13818;52.156;5.382;2023-04-25T02:57:17;13.45;;;1.88;;
26042;SDS011;13818;52.156;5.382;2023-04-25T02:59:44;14.90;;;2.40;;
26042;SDS011;13818;52.156;5.382;2023-04-25T03:02:10;10.05;;;2.28;;
26042;SDS011;13818;52.156;5.382;2023-04-25T03:04:38;9.05;;;2.50;;
26042;SDS011;13818;52.156;5.382;2023-04-25T03:07:05;12.05;;;2.38;;
26042;SDS011;13818;52.156;5.382;2023-04-25T03:09:31;14.75;;;3.20;;
26042;SDS011;13818;52.156;5.382;2023-04-25T03:11:58;18.02;;;2.63;;
26042;SDS011;13818;52.156;5.382;2023-04-25T03:14:25;13.98;;;2.63;;
26042;SDS011;13818;52.156;5.382;2023-04-25T03:16:51;8.65;;;2.42;;
26042;SDS011;13818;52.156;5.382;2023-04-25T03:19:18;10.43;;;2.25;;
26042;SDS011;13818;52.156;5.382;2023-04-25T03:21:46;10.75;;;2.30;;
26042;SDS011;13818;52.156;5.382;2023-04-25T03:24:13;11.40;;;3.05;;
26042;SDS011;13818;52.156;5.382;2023-04-25T03:26:40;6.35;;;2.50;;
26042;SDS011;13818;52.156;5.382;2023-04-25T03:29:06;13.75;;;2.90;;
26042;SDS011;13818;52.156;5.382;2023-04-25T03:31:33;12.48;;;2.80;;
26042;SDS011;13818;52.156;5.382;2023-04-25T03:33:59;15.43;;;3.03;;
26042;SDS011;13818;52.156;5.382;2023-04-25T03:36:26;15.32;;;2.63;;
26042;SDS011;13818;52.156;5.382;2023-04-25T03:38:54;14.15;;;2.65;;
26042;SDS011;13818;52.156;5.382;2023-04-25T03:41:20;7.75;;;2.35;;
26042;SDS011;13818;52.156;5.382;2023-04-25T03:43:48;17.80;;;3.15;;
26042;SDS011;13818;52.156;5.382;2023-04-25T03:46:14;17.88;;;3.13;;
26042;SDS011;13818;52.156;5.382;2023-04-25T03:48:41;18.50;;;3.00;;
26042;SDS011;13818;52.156;5.382;2023-04-25T03:51:07;10.68;;;2.30;;
26042;SDS011;13818;52.156;5.382;2023-04-25T03:53:34;18.17;;;3.13;;
26042;SDS011;13818;52.156;5.382;2023-04-25T03:56:02;8.95;;;2.72;;
26042;SDS011;13818;52.156;5.382;2023-04-25T03:58:29;17.48;;;2.33;;
26042;SDS011;13818;52.156;5.382;2023-04-25T04:00:56;10.00;;;2.80;;
26042;SDS011;13818;52.156;5.382;2023-04-25T04:03:22;7.68;;;2.10;;
26042;SDS011;13818;52.156;5.382;2023-04-25T04:05:49;12.85;;;2.05;;
26042;SDS011;13818;52.156;5.382;2023-04-25T04:08:16;12.05;;;2.13;;
26042;SDS011;13818;52.156;5.382;2023-04-25T04:10:42;12.25;;;2.33;;
26042;SDS011;13818;52.156;5.382;2023-04-25T04:13:10;10.38;;;2.22;;
26042;SDS011;13818;52.156;5.382;2023-04-25T04:15:37;12.35;;;2.03;;
26042;SDS011;13818;52.156;5.382;2023-04-25T04:18:03;5.97;;;1.50;;
26042;SDS011;13818;52.156;5.382;2023-04-25T04:20:31;9.13;;;1.92;;
26042;SDS011;13818;52.156;5.382;2023-04-25T04:22:57;10.95;;;2.65;;
26042;SDS011;13818;52.156;5.382;2023-04-25T04:25:24;8.88;;;1.85;;
26042;SDS011;13818;52.156;5.382;2023-04-25T04:27:51;6.20;;;1.42;;
26042;SDS011;13818;52.156;5.382;2023-04-25T04:30:20;6.32;;;1.70;;
26042;SDS011;13818;52.156;5.382;2023-04-25T04:32:49;12.18;;;1.63;;
26042;SDS011;13818;52.156;5.382;2023-04-25T04:35:15;11.40;;;1.75;;
26042;SDS011;13818;52.156;5.382;2023-04-25T04:37:42;8.27;;;1.70;;
26042;SDS011;13818;52.156;5.382;2023-04-25T04:40:11;5.90;;;0.93;;
26042;SDS011;13818;52.156;5.382;2023-04-25T04:42:40;7.85;;;1.20;;
26042;SDS011;13818;52.156;5.382;2023-04-25T04:45:07;6.85;;;1.23;;
26042;SDS011;13818;52.156;5.382;2023-04-25T04:47:37;6.55;;;1.10;;
26042;SDS011;13818;52.156;5.382;2023-04-25T04:50:05;8.05;;;1.40;;
26042;SDS011;13818;52.156;5.382;2023-04-25T04:52:33;7.45;;;1.25;;
26042;SDS011;13818;52.156;5.382;2023-04-25T04:55:00;8.98;;;1.38;;
26042;SDS011;13818;52.156;5.382;2023-04-25T04:57:28;7.03;;;1.40;;
26042;SDS011;13818;52.156;5.382;2023-04-25T04:59:54;7.47;;;1.23;;
26042;SDS011;13818;52.156;5.382;2023-04-25T05:02:21;8.18;;;1.60;;
26042;SDS011;13818;52.156;5.382;2023-04-25T05:04:50;8.57;;;1.60;;
26042;SDS011;13818;52.156;5.382;2023-04-25T05:07:16;8.75;;;1.13;;
26042;SDS011;13818;52.156;5.382;2023-04-25T05:09:43;6.90;;;1.35;;
26042;SDS011;13818;52.156;5.382;2023-04-25T05:12:11;8.77;;;1.85;;
26042;SDS011;13818;52.156;5.382;2023-04-25T05:14:37;5.03;;;1.10;;
26042;SDS011;13818;52.156;5.382;2023-04-25T05:17:04;7.85;;;1.10;;
26042;SDS011;13818;52.156;5.382;2023-04-25T05:19:33;3.50;;;1.48;;
26042;SDS011;13818;52.156;5.382;2023-04-25T05:22:02;7.82;;;1.38;;
26042;SDS011;13818;52.156;5.382;2023-04-25T05:24:29;9.43;;;1.40;;
26042;SDS011;13818;52.156;5.382;2023-04-25T05:26:56;7.28;;;2.25;;
26042;SDS011;13818;52.156;5.382;2023-04-25T05:29:23;8.95;;;1.58;;
26042;SDS011;13818;52.156;5.382;2023-04-25T05:31:50;11.65;;;2.40;;
26042;SDS011;13818;52.156;5.382;2023-04-25T05:34:16;5.07;;;1.20;;
26042;SDS011;13818;52.156;5.382;2023-04-25T05:36:43;6.13;;;1.02;;
26042;SDS011;13818;52.156;5.382;2023-04-25T05:39:11;6.47;;;1.85;;
26042;SDS011;13818;52.156;5.382;2023-04-25T05:41:37;7.50;;;1.85;;
26042;SDS011;13818;52.156;5.382;2023-04-25T05:44:04;5.30;;;1.30;;
26042;SDS011;13818;52.156;5.382;2023-04-25T05:46:31;7.13;;;1.50;;
26042;SDS011;13818;52.156;5.382;2023-04-25T05:48:57;8.50;;;1.60;;
26042;SDS011;13818;52.156;5.382;2023-04-25T05:51:24;9.85;;;1.50;;
26042;SDS011;13818;52.156;5.382;2023-04-25T05:53:51;9.07;;;1.92;;
26042;SDS011;13818;52.156;5.382;2023-04-25T05:56:19;8.70;;;1.08;;
26042;SDS011;13818;52.156;5.382;2023-04-25T05:58:46;7.55;;;1.38;;
26042;SDS011;13818;52.156;5.382;2023-04-25T06:01:13;6.30;;;1.42;;
26042;SDS011;13818;52.156;5.382;2023-04-25T06:03:40;7.22;;;1.10;;
26042;SDS011;13818;52.156;5.382;2023-04-25T06:06:08;10.00;;;2.72;;
26042;SDS011;13818;52.156;5.382;2023-04-25T06:08:35;8.10;;;1.58;;
26042;SDS011;13818;52.156;5.382;2023-04-25T06:11:02;9.85;;;1.67;;
26042;SDS011;13818;52.156;5.382;2023-04-25T06:13:30;3.58;;;0.90;;
26042;SDS011;13818;52.156;5.382;2023-04-25T06:15:57;5.10;;;1.13;;
26042;SDS011;13818;52.156;5.382;2023-04-25T06:18:23;4.45;;;1.23;;
26042;SDS011;13818;52.156;5.382;2023-04-25T06:20:51;3.78;;;0.95;;
26042;SDS011;13818;52.156;5.382;2023-04-25T06:23:17;7.95;;;1.00;;
26042;SDS011;13818;52.156;5.382;2023-04-25T06:25:44;4.13;;;1.08;;
26042;SDS011;13818;52.156;5.382;2023-04-25T06:28:10;6.07;;;1.10;;
26042;SDS011;13818;52.156;5.382;2023-04-25T06:30:38;9.77;;;1.52;;
26042;SDS011;13818;52.156;5.382;2023-04-25T06:33:05;9.52;;;1.45;;
26042;SDS011;13818;52.156;5.382;2023-04-25T06:35:33;2.72;;;0.57;;
26042;SDS011;13818;52.156;5.382;2023-04-25T06:38:01;8.50;;;1.50;;
26042;SDS011;13818;52.156;5.382;2023-04-25T06:40:27;3.88;;;0.95;;
26042;SDS011;13818;52.156;5.382;2023-04-25T06:42:54;4.38;;;1.10;;
26042;SDS011;13818;52.156;5.382;2023-04-25T06:45:22;7.20;;;1.30;;
26042;SDS011;13818;52.156;5.382;2023-04-25T06:47:50;8.18;;;1.55;;
26042;SDS011;13818;52.156;5.382;2023-04-25T06:50:16;12.50;;;1.20;;
26042;SDS011;13818;52.156;5.382;2023-04-25T06:52:44;7.15;;;1.42;;
26042;SDS011;13818;52.156;5.382;2023-04-25T06:55:11;4.63;;;1.30;;
26042;SDS011;13818;52.156;5.382;2023-04-25T06:57:37;3.72;;;0.98;;
26042;SDS011;13818;52.156;5.382;2023-04-25T07:00:04;9.70;;;1.70;;
26042;SDS011;13818;52.156;5.382;2023-04-25T07:02:34;4.80;;;0.75;;
26042;SDS011;13818;52.156;5.382;2023-04-25T07:05:02;8.70;;;1.33;;
26042;SDS011;13818;52.156;5.382;2023-04-25T07:07:29;4.00;;;1.05;;
26042;SDS011;13818;52.156;5.382;2023-04-25T07:09:55;6.28;;;1.83;;
26042;SDS011;13818;52.156;5.382;2023-04-25T07:12:22;9.32;;;2.15;;
26042;SDS011;13818;52.156;5.382;2023-04-25T07:14:49;10.07;;;1.38;;
26042;SDS011;13818;52.156;5.382;2023-04-25T07:17:16;2.85;;;0.80;;
26042;SDS011;13818;52.156;5.382;2023-04-25T07:19:42;10.65;;;2.03;;
26042;SDS011;13818;52.156;5.382;2023-04-25T07:22:10;7.43;;;1.25;;
26042;SDS011;13818;52.156;5.382;2023-04-25T07:24:37;2.70;;;1.00;;
26042;SDS011;13818;52.156;5.382;2023-04-25T07:27:04;7.70;;;0.93;;
26042;SDS011;13818;52.156;5.382;2023-04-25T07:29:30;5.53;;;0.85;;
26042;SDS011;13818;52.156;5.382;2023-04-25T07:31:57;6.95;;;1.33;;
26042;SDS011;13818;52.156;5.382;2023-04-25T07:34:23;2.17;;;0.90;;
26042;SDS011;13818;52.156;5.382;2023-04-25T07:36:50;9.77;;;1.00;;
26042;SDS011;13818;52.156;5.382;2023-04-25T07:39:18;3.38;;;0.90;;
26042;SDS011;13818;52.156;5.382;2023-04-25T07:41:44;5.93;;;1.10;;
26042;SDS011;13818;52.156;5.382;2023-04-25T07:44:12;2.90;;;0.73;;
26042;SDS011;13818;52.156;5.382;2023-04-25T07:46:38;2.88;;;0.63;;
26042;SDS011;13818;52.156;5.382;2023-04-25T07:49:05;7.15;;;0.75;;
26042;SDS011;13818;52.156;5.382;2023-04-25T07:51:31;6.15;;;1.02;;
26042;SDS011;13818;52.156;5.382;2023-04-25T07:53:58;5.10;;;0.70;;
26042;SDS011;13818;52.156;5.382;2023-04-25T07:56:27;3.47;;;1.17;;
26042;SDS011;13818;52.156;5.382;2023-04-25T07:58:53;5.80;;;0.85;;
26042;SDS011;13818;52.156;5.382;2023-04-25T08:01:20;4.80;;;0.70;;
26042;SDS011;13818;52.156;5.382;2023-04-25T08:03:47;6.88;;;1.38;;
26042;SDS011;13818;52.156;5.382;2023-04-25T08:06:14;10.30;;;1.30;;
26042;SDS011;13818;52.156;5.382;2023-04-25T08:08:43;6.95;;;1.27;;
26042;SDS011;13818;52.156;5.382;2023-04-25T08:11:09;13.30;;;3.27;;
26042;SDS011;13818;52.156;5.382;2023-04-25T08:13:37;3.35;;;1.00;;
26042;SDS011;13818;52.156;5.382;2023-04-25T08:16:04;5.15;;;0.60;;
26042;SDS011;13818;52.156;5.382;2023-04-25T08:18:31;3.25;;;0.50;;
26042;SDS011;13818;52.156;5.382;2023-04-25T08:20:57;4.90;;;0.70;;
26042;SDS011;13818;52.156;5.382;2023-04-25T08:23:24;7.03;;;1.00;;
26042;SDS011;13818;52.156;5.382;2023-04-25T08:25:51;2.25;;;0.60;;
26042;SDS011;13818;52.156;5.382;2023-04-25T08:28:17;3.95;;;0.60;;
26042;SDS011;13818;52.156;5.382;2023-04-25T08:30:45;3.90;;;0.52;;
26042;SDS011;13818;52.156;5.382;2023-04-25T08:33:12;4.72;;;0.68;;
26042;SDS011;13818;52.156;5.382;2023-04-25T08:35:39;2.75;;;0.60;;
26042;SDS011;13818;52.156;5.382;2023-04-25T08:38:06;3.45;;;0.60;;
26042;SDS011;13818;52.156;5.382;2023-04-25T08:40:32;3.45;;;0.60;;
26042;SDS011;13818;52.156;5.382;2023-04-25T08:43:03;2.92;;;0.80;;
26042;SDS011;13818;52.156;5.382;2023-04-25T08:45:36;3.67;;;0.90;;
26042;SDS011;13818;52.156;5.382;2023-04-25T08:48:10;3.83;;;0.52;;
26042;SDS011;13818;52.156;5.382;2023-04-25T08:50:37;7.78;;;0.85;;
26042;SDS011;13818;52.156;5.382;2023-04-25T08:53:06;6.95;;;1.40;;
26042;SDS011;13818;52.156;5.382;2023-04-25T08:58:03;9.50;;;1.15;;
26042;SDS011;13818;52.156;5.382;2023-04-25T09:00:31;3.65;;;0.70;;
26042;SDS011;13818;52.156;5.382;2023-04-25T09:02:57;4.60;;;1.13;;
26042;SDS011;13818;52.156;5.382;2023-04-25T09:05:26;7.85;;;0.95;;
26042;SDS011;13818;52.156;5.382;2023-04-25T09:07:54;6.75;;;0.90;;
26042;SDS011;13818;52.156;5.382;2023-04-25T09:10:21;5.75;;;0.90;;
26042;SDS011;13818;52.156;5.382;2023-04-25T09:13:01;6.38;;;1.00;;
26042;SDS011;13818;52.156;5.382;2023-04-25T09:15:28;5.07;;;0.82;;
26042;SDS011;13818;52.156;5.382;2023-04-25T09:17:55;11.30;;;0.77;;
26042;SDS011;13818;52.156;5.382;2023-04-25T09:20:22;7.05;;;1.20;;
26042;SDS011;13818;52.156;5.382;2023-04-25T09:22:51;3.00;;;1.13;;
26042;SDS011;13818;52.156;5.382;2023-04-25T09:25:35;7.60;;;0.90;;
26042;SDS011;13818;52.156;5.382;2023-04-25T09:28:04;3.28;;;0.50;;
26042;SDS011;13818;52.156;5.382;2023-04-25T09:30:32;4.70;;;1.35;;
26042;SDS011;13818;52.156;5.382;2023-04-25T09:33:03;5.80;;;0.90;;
26042;SDS011;13818;52.156;5.382;2023-04-25T09:35:30;6.28;;;0.65;;
26042;SDS011;13818;52.156;5.382;2023-04-25T09:38:03;10.32;;;1.20;;
26042;SDS011;13818;52.156;5.382;2023-04-25T09:40:33;3.75;;;0.73;;
26042;SDS011;13818;52.156;5.382;2023-04-25T09:43:00;8.68;;;1.52;;
26042;SDS011;13818;52.156;5.382;2023-04-25T09:45:28;3.70;;;1.23;;
26042;SDS011;13818;52.156;5.382;2023-04-25T09:47:56;4.75;;;0.68;;
26042;SDS011;13818;52.156;5.382;2023-04-25T09:50:23;3.58;;;0.30;;
26042;SDS011;13818;52.156;5.382;2023-04-25T09:53:03;4.07;;;1.27;;
26042;SDS011;13818;52.156;5.382;2023-04-25T09:55:31;3.95;;;0.60;;
26042;SDS011;13818;52.156;5.382;2023-04-25T09:57:58;5.43;;;0.77;;
26042;SDS011;13818;52.156;5.382;2023-04-25T10:00:30;7.50;;;0.85;;
26042;SDS011;13818;52.156;5.382;2023-04-25T10:02:58;2.55;;;0.45;;
26042;SDS011;13818;52.156;5.382;2023-04-25T10:05:28;4.65;;;0.60;;
26042;SDS011;13818;52.156;5.382;2023-04-25T10:10:26;2.97;;;0.73;;
26042;SDS011;13818;52.156;5.382;2023-04-25T10:15:21;5.57;;;0.77;;
26042;SDS011;13818;52.156;5.382;2023-04-25T10:17:48;6.82;;;0.70;;
26042;SDS011;13818;52.156;5.382;2023-04-25T10:20:15;5.30;;;0.70;;
26042;SDS011;13818;52.156;5.382;2023-04-25T10:22:44;4.50;;;1.00;;
26042;SDS011;13818;52.156;5.382;2023-04-25T10:25:13;6.55;;;0.85;;
26042;SDS011;13818;52.156;5.382;2023-04-25T10:27:41;2.47;;;0.60;;
26042;SDS011;13818;52.156;5.382;2023-04-25T10:30:09;5.80;;;1.00;;
26042;SDS011;13818;52.156;5.382;2023-04-25T10:32:41;1.38;;;0.30;;
26042;SDS011;13818;52.156;5.382;2023-04-25T10:35:12;6.32;;;0.90;;
26042;SDS011;13818;52.156;5.382;2023-04-25T10:43:32;3.17;;;0.52;;
26042;SDS011;13818;52.156;5.382;2023-04-25T10:46:01;4.95;;;0.60;;
26042;SDS011;13818;52.156;5.382;2023-04-25T10:48:28;3.85;;;0.60;;
26042;SDS011;13818;52.156;5.382;2023-04-25T10:53:45;5.10;;;1.08;;
26042;SDS011;13818;52.156;5.382;2023-04-25T10:56:12;3.47;;;0.80;;
26042;SDS011;13818;52.156;5.382;2023-04-25T10:58:45;5.00;;;0.57;;
26042;SDS011;13818;52.156;5.382;2023-04-25T11:01:12;7.53;;;0.80;;
26042;SDS011;13818;52.156;5.382;2023-04-25T11:03:40;5.28;;;0.63;;
26042;SDS011;13818;52.156;5.382;2023-04-25T11:06:17;0.73;;;0.28;;
26042;SDS011;13818;52.156;5.382;2023-04-25T11:08:48;1.40;;;0.70;;
26042;SDS011;13818;52.156;5.382;2023-04-25T11:11:16;8.38;;;1.08;;
26042;SDS011;13818;52.156;5.382;2023-04-25T11:13:46;4.25;;;0.98;;
26042;SDS011;13818;52.156;5.382;2023-04-25T11:16:14;3.78;;;0.57;;
26042;SDS011;13818;52.156;5.382;2023-04-25T11:18:41;6.35;;;0.60;;
26042;SDS011;13818;52.156;5.382;2023-04-25T11:21:08;5.30;;;1.00;;
26042;SDS011;13818;52.156;5.382;2023-04-25T11:23:35;4.40;;;1.00;;
26042;SDS011;13818;52.156;5.382;2023-04-25T11:26:01;4.90;;;1.00;;
26042;SDS011;13818;52.156;5.382;2023-04-25T11:28:28;5.32;;;0.93;;
26042;SDS011;13818;52.156;5.382;2023-04-25T11:30:56;4.43;;;0.95;;
26042;SDS011;13818;52.156;5.382;2023-04-25T11:33:23;9.48;;;0.80;;
26042;SDS011;13818;52.156;5.382;2023-04-25T11:35:51;5.70;;;0.90;;
26042;SDS011;13818;52.156;5.382;2023-04-25T11:38:20;2.22;;;0.73;;
26042;SDS011;13818;52.156;5.382;2023-04-25T11:40:49;3.75;;;1.17;;
26042;SDS011;13818;52.156;5.382;2023-04-25T11:43:16;5.68;;;1.42;;
26042;SDS011;13818;52.156;5.382;2023-04-25T11:45:45;3.13;;;0.98;;
26042;SDS011;13818;52.156;5.382;2023-04-25T11:48:13;4.00;;;0.70;;
26042;SDS011;13818;52.156;5.382;2023-04-25T11:50:40;3.72;;;0.90;;
26042;SDS011;13818;52.156;5.382;2023-04-25T11:53:07;4.30;;;1.10;;
26042;SDS011;13818;52.156;5.382;2023-04-25T11:55:35;5.72;;;0.80;;
26042;SDS011;13818;52.156;5.382;2023-04-25T11:58:02;4.85;;;0.68;;
26042;SDS011;13818;52.156;5.382;2023-04-25T12:00:30;4.20;;;1.02;;
26042;SDS011;13818;52.156;5.382;2023-04-25T12:02:57;5.28;;;0.70;;
26042;SDS011;13818;52.156;5.382;2023-04-25T12:05:27;3.63;;;0.50;;
26042;SDS011;13818;52.156;5.382;2023-04-25T12:07:55;1.83;;;0.50;;
26042;SDS011;13818;52.156;5.382;2023-04-25T12:10:23;4.28;;;0.80;;
26042;SDS011;13818;52.156;5.382;2023-04-25T12:12:51;3.50;;;0.68;;
26042;SDS011;13818;52.156;5.382;2023-04-25T12:15:18;2.65;;;0.60;;
26042;SDS011;13818;52.156;5.382;2023-04-25T12:17:50;2.70;;;0.77;;
26042;SDS011;13818;52.156;5.382;2023-04-25T12:22:47;6.85;;;0.82;;
26042;SDS011;13818;52.156;5.382;2023-04-25T12:28:09;4.38;;;1.55;;
26042;SDS011;13818;52.156;5.382;2023-04-25T12:30:51;4.43;;;0.73;;
26042;SDS011;13818;52.156;5.382;2023-04-25T12:33:18;3.63;;;0.90;;
26042;SDS011;13818;52.156;5.382;2023-04-25T12:35:45;2.78;;;0.73;;
26042;SDS011;13818;52.156;5.382;2023-04-25T12:38:13;4.20;;;0.60;;
26042;SDS011;13818;52.156;5.382;2023-04-25T12:40:46;5.18;;;0.70;;
26042;SDS011;13818;52.156;5.382;2023-04-25T12:43:14;4.13;;;0.73;;
26042;SDS011;13818;52.156;5.382;2023-04-25T12:45:40;2.90;;;0.73;;
26042;SDS011;13818;52.156;5.382;2023-04-25T12:48:07;5.78;;;1.00;;
26042;SDS011;13818;52.156;5.382;2023-04-25T12:50:34;6.43;;;1.25;;
26042;SDS011;13818;52.156;5.382;2023-04-25T12:53:01;8.85;;;1.23;;
26042;SDS011;13818;52.156;5.382;2023-04-25T12:55:28;2.38;;;0.52;;
26042;SDS011;13818;52.156;5.382;2023-04-25T12:57:55;2.03;;;0.85;;
26042;SDS011;13818;52.156;5.382;2023-04-25T13:00:22;1.88;;;0.43;;
26042;SDS011;13818;52.156;5.382;2023-04-25T13:02:49;4.25;;;0.63;;
26042;SDS011;13818;52.156;5.382;2023-04-25T13:05:15;3.97;;;0.82;;
26042;SDS011;13818;52.156;5.382;2023-04-25T13:07:43;1.90;;;0.50;;
26042;SDS011;13818;52.156;5.382;2023-04-25T13:10:10;3.20;;;0.85;;
26042;SDS011;13818;52.156;5.382;2023-04-25T13:12:38;5.55;;;0.75;;
26042;SDS011;13818;52.156;5.382;2023-04-25T13:15:05;4.85;;;0.75;;
26042;SDS011;13818;52.156;5.382;2023-04-25T13:17:34;3.38;;;0.63;;
26042;SDS011;13818;52.156;5.382;2023-04-25T13:20:00;3.42;;;0.73;;
26042;SDS011;13818;52.156;5.382;2023-04-25T13:22:28;5.65;;;0.98;;
26042;SDS011;13818;52.156;5.382;2023-04-25T13:24:55;3.22;;;0.80;;
26042;SDS011;13818;52.156;5.382;2023-04-25T13:27:22;5.55;;;0.77;;
26042;SDS011;13818;52.156;5.382;2023-04-25T13:29:49;3.03;;;0.60;;
26042;SDS011;13818;52.156;5.382;2023-04-25T13:32:16;2.90;;;0.50;;
26042;SDS011;13818;52.156;5.382;2023-04-25T13:34:42;3.75;;;0.63;;
26042;SDS011;13818;52.156;5.382;2023-04-25T13:37:10;3.40;;;0.60;;
26042;SDS011;13818;52.156;5.382;2023-04-25T13:39:37;3.63;;;0.90;;
26042;SDS011;13818;52.156;5.382;2023-04-25T13:42:03;2.95;;;0.70;;
26042;SDS011;13818;52.156;5.382;2023-04-25T13:44:30;4.50;;;0.47;;
26042;SDS011;13818;52.156;5.382;2023-04-25T13:46:58;3.47;;;0.60;;
26042;SDS011;13818;52.156;5.382;2023-04-25T13:49:25;4.07;;;0.77;;
26042;SDS011;13818;52.156;5.382;2023-04-25T13:51:52;5.93;;;0.90;;
26042;SDS011;13818;52.156;5.382;2023-04-25T13:54:19;2.42;;;0.57;;
26042;SDS011;13818;52.156;5.382;2023-04-25T13:56:45;3.50;;;0.63;;
26042;SDS011;13818;52.156;5.382;2023-04-25T13:59:12;5.28;;;0.88;;
26042;SDS011;13818;52.156;5.382;2023-04-25T14:01:38;4.07;;;0.60;;
26042;SDS011;13818;52.156;5.382;2023-04-25T14:04:06;2.72;;;0.70;;
26042;SDS011;13818;52.156;5.382;2023-04-25T14:06:33;1.33;;;0.60;;
26042;SDS011;13818;52.156;5.382;2023-04-25T14:09:00;6.30;;;1.02;;
26042;SDS011;13818;52.156;5.382;2023-04-25T14:11:29;1.87;;;0.60;;
26042;SDS011;13818;52.156;5.382;2023-04-25T14:13:55;2.17;;;0.60;;
26042;SDS011;13818;52.156;5.382;2023-04-25T14:16:22;8.00;;;0.98;;
26042;SDS011;13818;52.156;5.382;2023-04-25T14:18:49;4.63;;;0.85;;
26042;SDS011;13818;52.156;5.382;2023-04-25T14:21:18;2.25;;;1.38;;
26042;SDS011;13818;52.156;5.382;2023-04-25T14:23:45;2.95;;;1.00;;
26042;SDS011;13818;52.156;5.382;2023-04-25T14:26:12;2.25;;;0.70;;
26042;SDS011;13818;52.156;5.382;2023-04-25T14:28:39;7.53;;;1.23;;
26042;SDS011;13818;52.156;5.382;2023-04-25T14:31:06;6.30;;;0.75;;
26042;SDS011;13818;52.156;5.382;2023-04-25T14:33:32;5.65;;;1.48;;
26042;SDS011;13818;52.156;5.382;2023-04-25T14:35:59;2.50;;;0.57;;
26042;SDS011;13818;52.156;5.382;2023-04-25T14:38:27;1.95;;;0.40;;
26042;SDS011;13818;52.156;5.382;2023-04-25T14:40:53;4.95;;;0.57;;
26042;SDS011;13818;52.156;5.382;2023-04-25T14:43:20;3.60;;;0.90;;
26042;SDS011;13818;52.156;5.382;2023-04-25T14:45:46;4.25;;;0.90;;
26042;SDS011;13818;52.156;5.382;2023-04-25T14:48:13;4.35;;;0.73;;
26042;SDS011;13818;52.156;5.382;2023-04-25T14:50:40;2.17;;;0.47;;
26042;SDS011;13818;52.156;5.382;2023-04-25T14:53:07;5.57;;;0.70;;
26042;SDS011;13818;52.156;5.382;2023-04-25T14:55:34;5.90;;;1.20;;
26042;SDS011;13818;52.156;5.382;2023-04-25T14:58:01;3.05;;;0.82;;
26042;SDS011;13818;52.156;5.382;2023-04-25T15:00:28;3.90;;;0.60;;
26042;SDS011;13818;52.156;5.382;2023-04-25T15:02:55;1.42;;;0.50;;
26042;SDS011;13818;52.156;5.382;2023-04-25T15:05:22;4.72;;;0.50;;
26042;SDS011;13818;52.156;5.382;2023-04-25T15:07:49;4.03;;;0.60;;